sensor_id;sensor_type;location;lat;lon;timestamp;temperature;humidity
19680;DHT22;9989;48.962;9.182;2024-03-02T00:02:13;8.60;99.90
19680;DHT22;9989;48.962;9.182;2024-03-02T00:04:44;8.60;99.90
19680;DHT22;9989;48.962;9.182;2024-03-02T00:07:11;8.50;99.90
19680;DHT22;9989;48.962;9.182;2024-03-02T00:09:39;8.50;99.90
19680;DHT22;9989;48.962;9.182;2024-03-02T00:12:05;8.50;99.90
19680;DHT22;9989;48.962;9.182;2024-03-02T00:14:30;8.50;99.90
19680;DHT22;9989;48.962;9.182;2024-03-02T00:16:56;8.40;99.90
19680;DHT22;9989;48.962;9.182;2024-03-02T00:19:22;8.40;99.90
19680;DHT22;9989;48.962;9.182;2024-03-02T00:21:48;8.40;99.90
19680;DHT22;9989;48.962;9.182;2024-03-02T00:24:34;8.40;99.90
19680;DHT22;9989;48.962;9.182;2024-03-02T00:27:01;8.30;99.90
19680;DHT22;9989;48.962;9.182;2024-03-02T00:29:29;8.30;99.90
19680;DHT22;9989;48.962;9.182;2024-03-02T00:31:55;8.30;99.90
19680;DHT22;9989;48.962;9.182;2024-03-02T00:34:21;8.30;99.90
19680;DHT22;9989;48.962;9.182;2024-03-02T00:36:47;8.30;99.90
19680;DHT22;9989;48.962;9.182;2024-03-02T00:39:15;8.20;99.90
19680;DHT22;9989;48.962;9.182;2024-03-02T00:41:42;8.20;99.90
19680;DHT22;9989;48.962;9.182;2024-03-02T00:44:10;8.20;99.90
19680;DHT22;9989;48.962;9.182;2024-03-02T00:46:38;8.10;99.90
19680;DHT22;9989;48.962;9.182;2024-03-02T00:49:23;8.10;99.90
19680;DHT22;9989;48.962;9.182;2024-03-02T00:51:53;8.10;99.90
19680;DHT22;9989;48.962;9.182;2024-03-02T00:54:23;8.10;99.90
19680;DHT22;9989;48.962;9.182;2024-03-02T00:56:51;8.10;99.90
19680;DHT22;9989;48.962;9.182;2024-03-02T00:59:17;8.10;99.90
19680;DHT22;9989;48.962;9.182;2024-03-02T01:01:43;8.10;99.90
19680;DHT22;9989;48.962;9.182;2024-03-02T01:04:09;8.10;99.90
19680;DHT22;9989;48.962;9.182;2024-03-02T01:06:37;8.10;99.90
19680;DHT22;9989;48.962;9.182;2024-03-02T01:09:03;8.10;99.90
19680;DHT22;9989;48.962;9.182;2024-03-02T01:11:29;8.10;99.90
19680;DHT22;9989;48.962;9.182;2024-03-02T01:13:55;8.10;99.90
19680;DHT22;9989;48.962;9.182;2024-03-02T01:16:21;8.00;99.90
19680;DHT22;9989;48.962;9.182;2024-03-02T01:18:46;8.00;99.90
19680;DHT22;9989;48.962;9.182;2024-03-02T01:21:12;8.00;99.90
19680;DHT22;9989;48.962;9.182;2024-03-02T01:23:38;8.00;99.90
19680;DHT22;9989;48.962;9.182;2024-03-02T01:26:04;7.90;99.90
19680;DHT22;9989;48.962;9.182;2024-03-02T01:28:29;7.90;99.90
19680;DHT22;9989;48.962;9.182;2024-03-02T01:30:55;7.90;99.90
19680;DHT22;9989;48.962;9.182;2024-03-02T01:33:20;7.90;99.90
19680;DHT22;9989;48.962;9.182;2024-03-02T01:35:47;7.90;99.90
19680;DHT22;9989;48.962;9.182;2024-03-02T01:38:13;7.90;99.90
19680;DHT22;9989;48.962;9.182;2024-03-02T01:40:38;7.90;99.90
19680;DHT22;9989;48.962;9.182;2024-03-02T01:43:05;7.90;99.90
19680;DHT22;9989;48.962;9.182;2024-03-02T01:45:31;7.90;99.90
19680;DHT22;9989;48.962;9.182;2024-03-02T01:47:57;7.90;99.90
19680;DHT22;9989;48.962;9.182;2024-03-02T01:50:31;7.80;99.90
19680;DHT22;9989;48.962;9.182;2024-03-02T01:52:57;7.80;99.90
19680;DHT22;9989;48.962;9.182;2024-03-02T01:55:24;7.80;99.90
19680;DHT22;9989;48.962;9.182;2024-03-02T01:57:50;7.80;99.90
19680;DHT22;9989;48.962;9.182;2024-03-02T02:00:22;7.80;99.90
19680;DHT22;9989;48.962;9.182;2024-03-02T02:02:50;7.80;99.90
19680;DHT22;9989;48.962;9.182;2024-03-02T02:05:15;7.80;99.90
19680;DHT22;9989;48.962;9.182;2024-03-02T02:07:41;7.80;99.90
19680;DHT22;9989;48.962;9.182;2024-03-02T02:10:08;7.80;99.90
19680;DHT22;9989;48.962;9.182;2024-03-02T02:12:34;7.80;99.90
19680;DHT22;9989;48.962;9.182;2024-03-02T02:15:00;7.80;99.90
19680;DHT22;9989;48.962;9.182;2024-03-02T02:17:26;7.80;99.90
19680;DHT22;9989;48.962;9.182;2024-03-02T02:19:51;7.70;99.90
19680;DHT22;9989;48.962;9.182;2024-03-02T02:22:17;7.70;99.90
19680;DHT22;9989;48.962;9.182;2024-03-02T02:24:43;7.70;99.90
19680;DHT22;9989;48.962;9.182;2024-03-02T02:27:09;7.60;99.90
19680;DHT22;9989;48.962;9.182;2024-03-02T02:29:36;7.60;99.90
19680;DHT22;9989;48.962;9.182;2024-03-02T02:32:02;7.60;99.90
19680;DHT22;9989;48.962;9.182;2024-03-02T02:34:28;7.50;99.90
19680;DHT22;9989;48.962;9.182;2024-03-02T02:36:54;7.50;99.90
19680;DHT22;9989;48.962;9.182;2024-03-02T02:39:21;7.50;99.90
19680;DHT22;9989;48.962;9.182;2024-03-02T02:41:48;7.40;99.90
19680;DHT22;9989;48.962;9.182;2024-03-02T02:44:13;7.40;99.90
19680;DHT22;9989;48.962;9.182;2024-03-02T02:46:40;7.40;99.90
19680;DHT22;9989;48.962;9.182;2024-03-02T02:49:06;7.40;99.90
19680;DHT22;9989;48.962;9.182;2024-03-02T02:51:31;7.40;99.90
19680;DHT22;9989;48.962;9.182;2024-03-02T02:53:57;7.40;99.90
19680;DHT22;9989;48.962;9.182;2024-03-02T02:56:22;7.40;99.90
19680;DHT22;9989;48.962;9.182;2024-03-02T02:58:48;7.30;99.90
19680;DHT22;9989;48.962;9.182;2024-03-02T03:01:15;7.30;99.90
19680;DHT22;9989;48.962;9.182;2024-03-02T03:03:43;7.30;99.90
19680;DHT22;9989;48.962;9.182;2024-03-02T03:06:09;7.30;99.90
19680;DHT22;9989;48.962;9.182;2024-03-02T03:08:35;7.20;99.90
19680;DHT22;9989;48.962;9.182;2024-03-02T03:11:00;7.20;99.90
19680;DHT22;9989;48.962;9.182;2024-03-02T03:13:26;7.10;99.90
19680;DHT22;9989;48.962;9.182;2024-03-02T03:15:51;7.00;99.90
19680;DHT22;9989;48.962;9.182;2024-03-02T03:18:18;7.00;99.90
19680;DHT22;9989;48.962;9.182;2024-03-02T03:20:44;7.00;99.90
19680;DHT22;9989;48.962;9.182;2024-03-02T03:23:09;6.90;99.90
19680;DHT22;9989;48.962;9.182;2024-03-02T03:25:35;6.90;99.90
19680;DHT22;9989;48.962;9.182;2024-03-02T03:28:00;6.90;99.90
19680;DHT22;9989;48.962;9.182;2024-03-02T03:30:27;6.90;99.90
19680;DHT22;9989;48.962;9.182;2024-03-02T03:32:52;6.80;99.90
19680;DHT22;9989;48.962;9.182;2024-03-02T03:35:18;6.80;99.90
19680;DHT22;9989;48.962;9.182;2024-03-02T03:37:44;6.80;99.90
19680;DHT22;9989;48.962;9.182;2024-03-02T03:40:10;6.70;99.90
19680;DHT22;9989;48.962;9.182;2024-03-02T03:42:39;6.70;99.90
19680;DHT22;9989;48.962;9.182;2024-03-02T03:45:08;6.70;99.90
19680;DHT22;9989;48.962;9.182;2024-03-02T03:47:34;6.60;99.90
19680;DHT22;9989;48.962;9.182;2024-03-02T03:50:00;6.60;99.90
19680;DHT22;9989;48.962;9.182;2024-03-02T03:52:25;6.60;99.90
19680;DHT22;9989;48.962;9.182;2024-03-02T03:54:51;6.60;99.90
19680;DHT22;9989;48.962;9.182;2024-03-02T03:57:17;6.70;99.90
19680;DHT22;9989;48.962;9.182;2024-03-02T03:59:42;6.70;99.90
19680;DHT22;9989;48.962;9.182;2024-03-02T04:02:08;6.70;99.90
19680;DHT22;9989;48.962;9.182;2024-03-02T04:04:35;6.70;99.90
19680;DHT22;9989;48.962;9.182;2024-03-02T04:07:01;6.70;99.90
19680;DHT22;9989;48.962;9.182;2024-03-02T04:09:26;6.70;99.90
19680;DHT22;9989;48.962;9.182;2024-03-02T04:11:52;6.60;99.90
19680;DHT22;9989;48.962;9.182;2024-03-02T04:14:18;6.60;99.90
19680;DHT22;9989;48.962;9.182;2024-03-02T04:16:43;6.60;99.90
19680;DHT22;9989;48.962;9.182;2024-03-02T04:19:09;6.60;99.90
19680;DHT22;9989;48.962;9.182;2024-03-02T04:21:34;6.60;99.90
19680;DHT22;9989;48.962;9.182;2024-03-02T04:24:00;6.70;99.90
19680;DHT22;9989;48.962;9.182;2024-03-02T04:26:26;6.70;99.90
19680;DHT22;9989;48.962;9.182;2024-03-02T04:28:52;6.70;99.90
19680;DHT22;9989;48.962;9.182;2024-03-02T04:31:18;6.70;99.90
19680;DHT22;9989;48.962;9.182;2024-03-02T04:33:43;6.70;99.90
19680;DHT22;9989;48.962;9.182;2024-03-02T04:36:09;6.70;99.90
19680;DHT22;9989;48.962;9.182;2024-03-02T04:38:35;6.70;99.90
19680;DHT22;9989;48.962;9.182;2024-03-02T04:41:01;6.70;99.90
19680;DHT22;9989;48.962;9.182;2024-03-02T04:43:26;6.70;99.90
19680;DHT22;9989;48.962;9.182;2024-03-02T04:45:52;6.70;99.90
19680;DHT22;9989;48.962;9.182;2024-03-02T04:48:17;6.70;99.90
19680;DHT22;9989;48.962;9.182;2024-03-02T04:50:44;6.70;99.90
19680;DHT22;9989;48.962;9.182;2024-03-02T04:53:10;6.70;99.90
19680;DHT22;9989;48.962;9.182;2024-03-02T04:55:35;6.70;99.90
19680;DHT22;9989;48.962;9.182;2024-03-02T04:58:07;6.70;99.90
19680;DHT22;9989;48.962;9.182;2024-03-02T05:00:33;6.70;99.90
19680;DHT22;9989;48.962;9.182;2024-03-02T05:02:59;6.60;99.90
19680;DHT22;9989;48.962;9.182;2024-03-02T05:05:25;6.60;99.90
19680;DHT22;9989;48.962;9.182;2024-03-02T05:07:50;6.60;99.90
19680;DHT22;9989;48.962;9.182;2024-03-02T05:10:16;6.60;99.90
19680;DHT22;9989;48.962;9.182;2024-03-02T05:12:41;6.60;99.90
19680;DHT22;9989;48.962;9.182;2024-03-02T05:15:07;6.50;99.90
19680;DHT22;9989;48.962;9.182;2024-03-02T05:17:33;6.50;99.90
19680;DHT22;9989;48.962;9.182;2024-03-02T05:19:58;6.50;99.90
19680;DHT22;9989;48.962;9.182;2024-03-02T05:22:24;6.40;99.90
19680;DHT22;9989;48.962;9.182;2024-03-02T05:24:50;6.40;99.90
19680;DHT22;9989;48.962;9.182;2024-03-02T05:27:15;6.40;99.90
19680;DHT22;9989;48.962;9.182;2024-03-02T05:29:41;6.40;99.90
19680;DHT22;9989;48.962;9.182;2024-03-02T05:32:07;6.40;99.90
19680;DHT22;9989;48.962;9.182;2024-03-02T05:34:32;6.30;99.90
19680;DHT22;9989;48.962;9.182;2024-03-02T05:37:01;6.30;99.90
19680;DHT22;9989;48.962;9.182;2024-03-02T05:39:26;6.30;99.90
19680;DHT22;9989;48.962;9.182;2024-03-02T05:41:52;6.30;99.90
19680;DHT22;9989;48.962;9.182;2024-03-02T05:44:17;6.30;99.90
19680;DHT22;9989;48.962;9.182;2024-03-02T05:46:44;6.20;99.90
19680;DHT22;9989;48.962;9.182;2024-03-02T05:49:09;6.20;99.90
19680;DHT22;9989;48.962;9.182;2024-03-02T05:51:35;6.20;99.90
19680;DHT22;9989;48.962;9.182;2024-03-02T05:54:01;6.20;99.90
19680;DHT22;9989;48.962;9.182;2024-03-02T05:56:26;6.20;99.90
19680;DHT22;9989;48.962;9.182;2024-03-02T05:58:52;6.20;99.90
19680;DHT22;9989;48.962;9.182;2024-03-02T06:01:37;6.20;99.90
19680;DHT22;9989;48.962;9.182;2024-03-02T06:04:02;6.20;99.90
19680;DHT22;9989;48.962;9.182;2024-03-02T06:06:28;6.20;99.90
19680;DHT22;9989;48.962;9.182;2024-03-02T06:08:54;6.20;99.90
19680;DHT22;9989;48.962;9.182;2024-03-02T06:11:19;6.20;99.90
19680;DHT22;9989;48.962;9.182;2024-03-02T06:13:45;6.10;99.90
19680;DHT22;9989;48.962;9.182;2024-03-02T06:16:11;6.10;99.90
19680;DHT22;9989;48.962;9.182;2024-03-02T06:18:37;6.10;99.90
19680;DHT22;9989;48.962;9.182;2024-03-02T06:21:03;6.20;99.90
19680;DHT22;9989;48.962;9.182;2024-03-02T06:23:28;6.20;99.90
19680;DHT22;9989;48.962;9.182;2024-03-02T06:25:54;6.20;99.90
19680;DHT22;9989;48.962;9.182;2024-03-02T06:28:20;6.30;99.90
19680;DHT22;9989;48.962;9.182;2024-03-02T06:30:46;6.30;99.90
19680;DHT22;9989;48.962;9.182;2024-03-02T06:33:11;6.40;99.90
19680;DHT22;9989;48.962;9.182;2024-03-02T06:35:37;6.50;99.90
19680;DHT22;9989;48.962;9.182;2024-03-02T06:38:03;6.50;99.90
19680;DHT22;9989;48.962;9.182;2024-03-02T06:40:29;6.60;99.90
19680;DHT22;9989;48.962;9.182;2024-03-02T06:42:54;6.60;99.90
19680;DHT22;9989;48.962;9.182;2024-03-02T06:45:20;6.70;99.90
19680;DHT22;9989;48.962;9.182;2024-03-02T06:47:45;6.80;99.90
19680;DHT22;9989;48.962;9.182;2024-03-02T06:50:11;6.90;99.90
19680;DHT22;9989;48.962;9.182;2024-03-02T06:52:36;7.00;99.90
19680;DHT22;9989;48.962;9.182;2024-03-02T06:55:02;7.00;99.90
19680;DHT22;9989;48.962;9.182;2024-03-02T06:57:30;7.20;99.90
19680;DHT22;9989;48.962;9.182;2024-03-02T06:59:55;7.30;99.90
19680;DHT22;9989;48.962;9.182;2024-03-02T07:02:27;7.40;99.90
19680;DHT22;9989;48.962;9.182;2024-03-02T07:04:56;7.40;99.90
19680;DHT22;9989;48.962;9.182;2024-03-02T07:07:21;7.50;99.90
19680;DHT22;9989;48.962;9.182;2024-03-02T07:09:47;7.60;99.90
19680;DHT22;9989;48.962;9.182;2024-03-02T07:12:13;7.70;99.90
19680;DHT22;9989;48.962;9.182;2024-03-02T07:14:39;7.80;99.90
19680;DHT22;9989;48.962;9.182;2024-03-02T07:17:23;7.80;99.90
19680;DHT22;9989;48.962;9.182;2024-03-02T07:19:49;7.90;99.90
19680;DHT22;9989;48.962;9.182;2024-03-02T07:22:14;8.00;99.90
19680;DHT22;9989;48.962;9.182;2024-03-02T07:24:44;8.10;99.90
19680;DHT22;9989;48.962;9.182;2024-03-02T07:27:11;8.20;99.90
19680;DHT22;9989;48.962;9.182;2024-03-02T07:29:38;8.30;99.90
19680;DHT22;9989;48.962;9.182;2024-03-02T07:32:04;8.40;99.90
19680;DHT22;9989;48.962;9.182;2024-03-02T07:34:30;8.50;99.90
19680;DHT22;9989;48.962;9.182;2024-03-02T07:36:56;8.60;99.90
19680;DHT22;9989;48.962;9.182;2024-03-02T07:39:21;8.70;99.90
19680;DHT22;9989;48.962;9.182;2024-03-02T07:41:47;8.80;99.90
19680;DHT22;9989;48.962;9.182;2024-03-02T07:44:13;8.80;99.90
19680;DHT22;9989;48.962;9.182;2024-03-02T07:46:41;8.80;99.90
19680;DHT22;9989;48.962;9.182;2024-03-02T07:49:07;8.80;99.90
19680;DHT22;9989;48.962;9.182;2024-03-02T07:51:33;8.80;99.90
19680;DHT22;9989;48.962;9.182;2024-03-02T07:53:58;8.80;99.90
19680;DHT22;9989;48.962;9.182;2024-03-02T07:56:24;8.80;99.90
19680;DHT22;9989;48.962;9.182;2024-03-02T07:58:50;8.90;99.90
19680;DHT22;9989;48.962;9.182;2024-03-02T08:01:15;9.00;99.90
19680;DHT22;9989;48.962;9.182;2024-03-02T08:03:42;9.00;99.90
19680;DHT22;9989;48.962;9.182;2024-03-02T08:06:16;9.20;99.90
19680;DHT22;9989;48.962;9.182;2024-03-02T08:08:42;9.20;99.90
19680;DHT22;9989;48.962;9.182;2024-03-02T08:11:08;9.30;99.90
19680;DHT22;9989;48.962;9.182;2024-03-02T08:13:34;9.40;99.90
19680;DHT22;9989;48.962;9.182;2024-03-02T08:16:00;9.40;99.90
19680;DHT22;9989;48.962;9.182;2024-03-02T08:18:26;9.50;99.90
19680;DHT22;9989;48.962;9.182;2024-03-02T08:20:51;9.50;99.90
19680;DHT22;9989;48.962;9.182;2024-03-02T08:23:17;9.60;99.90
19680;DHT22;9989;48.962;9.182;2024-03-02T08:25:43;9.60;99.90
19680;DHT22;9989;48.962;9.182;2024-03-02T08:28:08;9.70;99.90
19680;DHT22;9989;48.962;9.182;2024-03-02T08:30:34;9.80;99.90
19680;DHT22;9989;48.962;9.182;2024-03-02T08:33:00;9.90;99.90
19680;DHT22;9989;48.962;9.182;2024-03-02T08:35:25;10.20;99.90
19680;DHT22;9989;48.962;9.182;2024-03-02T08:37:51;10.90;99.90
19680;DHT22;9989;48.962;9.182;2024-03-02T08:40:17;11.80;99.90
19680;DHT22;9989;48.962;9.182;2024-03-02T08:42:42;12.80;99.90
19680;DHT22;9989;48.962;9.182;2024-03-02T08:45:08;13.70;99.90
19680;DHT22;9989;48.962;9.182;2024-03-02T08:47:34;14.90;99.90
19680;DHT22;9989;48.962;9.182;2024-03-02T08:50:00;15.80;99.90
19680;DHT22;9989;48.962;9.182;2024-03-02T08:52:26;16.60;99.90
19680;DHT22;9989;48.962;9.182;2024-03-02T08:54:52;17.50;99.90
19680;DHT22;9989;48.962;9.182;2024-03-02T08:57:18;18.50;99.90
19680;DHT22;9989;48.962;9.182;2024-03-02T08:59:44;19.90;99.90
19680;DHT22;9989;48.962;9.182;2024-03-02T09:02:09;21.50;97.80
19680;DHT22;9989;48.962;9.182;2024-03-02T09:04:35;23.10;92.80
19680;DHT22;9989;48.962;9.182;2024-03-02T09:07:01;24.50;85.50
19680;DHT22;9989;48.962;9.182;2024-03-02T09:09:27;25.70;79.20
19680;DHT22;9989;48.962;9.182;2024-03-02T09:11:52;26.80;71.90
19680;DHT22;9989;48.962;9.182;2024-03-02T09:14:20;27.70;65.70
19680;DHT22;9989;48.962;9.182;2024-03-02T09:16:46;28.50;61.10
19680;DHT22;9989;48.962;9.182;2024-03-02T09:19:12;29.10;58.60
19680;DHT22;9989;48.962;9.182;2024-03-02T09:21:37;29.80;56.10
19680;DHT22;9989;48.962;9.182;2024-03-02T09:24:03;30.40;54.70
19680;DHT22;9989;48.962;9.182;2024-03-02T09:26:29;31.10;51.50
19680;DHT22;9989;48.962;9.182;2024-03-02T09:28:55;31.40;49.90
19680;DHT22;9989;48.962;9.182;2024-03-02T09:31:20;31.60;49.30
19680;DHT22;9989;48.962;9.182;2024-03-02T09:33:46;31.80;48.10
19680;DHT22;9989;48.962;9.182;2024-03-02T09:36:18;32.00;47.00
19680;DHT22;9989;48.962;9.182;2024-03-02T09:38:44;32.00;45.70
19680;DHT22;9989;48.962;9.182;2024-03-02T09:41:10;31.80;45.10
19680;DHT22;9989;48.962;9.182;2024-03-02T09:43:36;32.00;44.70
19680;DHT22;9989;48.962;9.182;2024-03-02T09:46:01;32.10;43.80
19680;DHT22;9989;48.962;9.182;2024-03-02T09:48:27;32.30;43.00
19680;DHT22;9989;48.962;9.182;2024-03-02T09:50:52;31.50;42.70
19680;DHT22;9989;48.962;9.182;2024-03-02T09:53:18;31.40;43.50
19680;DHT22;9989;48.962;9.182;2024-03-02T09:55:47;31.80;43.10
19680;DHT22;9989;48.962;9.182;2024-03-02T09:58:13;32.00;42.80
19680;DHT22;9989;48.962;9.182;2024-03-02T10:00:38;32.30;41.90
19680;DHT22;9989;48.962;9.182;2024-03-02T10:03:04;32.70;42.50
19680;DHT22;9989;48.962;9.182;2024-03-02T10:05:31;33.50;41.00
19680;DHT22;9989;48.962;9.182;2024-03-02T10:08:00;34.10;40.30
19680;DHT22;9989;48.962;9.182;2024-03-02T10:10:40;34.60;38.70
19680;DHT22;9989;48.962;9.182;2024-03-02T10:13:08;34.80;38.80
19680;DHT22;9989;48.962;9.182;2024-03-02T10:15:34;35.10;38.40
19680;DHT22;9989;48.962;9.182;2024-03-02T10:18:00;35.40;37.90
19680;DHT22;9989;48.962;9.182;2024-03-02T10:20:26;35.70;37.30
19680;DHT22;9989;48.962;9.182;2024-03-02T10:22:55;36.10;36.90
19680;DHT22;9989;48.962;9.182;2024-03-02T10:25:33;36.20;35.90
19680;DHT22;9989;48.962;9.182;2024-03-02T10:28:00;36.20;35.70
19680;DHT22;9989;48.962;9.182;2024-03-02T10:30:27;36.40;35.90
19680;DHT22;9989;48.962;9.182;2024-03-02T10:32:56;36.60;35.80
19680;DHT22;9989;48.962;9.182;2024-03-02T10:35:24;36.80;35.40
19680;DHT22;9989;48.962;9.182;2024-03-02T10:37:52;36.90;35.00
19680;DHT22;9989;48.962;9.182;2024-03-02T10:40:18;37.40;34.70
19680;DHT22;9989;48.962;9.182;2024-03-02T10:42:45;37.90;34.50
19680;DHT22;9989;48.962;9.182;2024-03-02T10:45:12;38.40;33.40
19680;DHT22;9989;48.962;9.182;2024-03-02T10:47:39;38.70;33.00
19680;DHT22;9989;48.962;9.182;2024-03-02T10:50:07;38.60;32.00
19680;DHT22;9989;48.962;9.182;2024-03-02T10:52:35;38.30;32.90
19680;DHT22;9989;48.962;9.182;2024-03-02T10:55:00;38.20;32.70
19680;DHT22;9989;48.962;9.182;2024-03-02T10:57:27;38.40;33.10
19680;DHT22;9989;48.962;9.182;2024-03-02T11:00:02;38.80;32.20
19680;DHT22;9989;48.962;9.182;2024-03-02T11:02:30;38.50;31.80
19680;DHT22;9989;48.962;9.182;2024-03-02T11:05:00;38.20;32.50
19680;DHT22;9989;48.962;9.182;2024-03-02T11:07:28;37.20;33.00
19680;DHT22;9989;48.962;9.182;2024-03-02T11:09:58;37.30;33.40
19680;DHT22;9989;48.962;9.182;2024-03-02T11:12:35;37.90;33.10
19680;DHT22;9989;48.962;9.182;2024-03-02T11:15:04;38.50;32.20
19680;DHT22;9989;48.962;9.182;2024-03-02T11:17:35;39.00;31.90
19680;DHT22;9989;48.962;9.182;2024-03-02T11:20:01;39.40;31.70
19680;DHT22;9989;48.962;9.182;2024-03-02T11:22:28;39.90;31.10
19680;DHT22;9989;48.962;9.182;2024-03-02T11:24:54;40.50;31.20
19680;DHT22;9989;48.962;9.182;2024-03-02T11:33:07;41.60;29.50
19680;DHT22;9989;48.962;9.182;2024-03-02T11:35:37;41.70;29.70
19680;DHT22;9989;48.962;9.182;2024-03-02T11:38:03;41.80;29.00
19680;DHT22;9989;48.962;9.182;2024-03-02T11:40:30;41.60;29.20
19680;DHT22;9989;48.962;9.182;2024-03-02T11:42:56;41.50;28.90
19680;DHT22;9989;48.962;9.182;2024-03-02T11:45:23;41.10;28.80
19680;DHT22;9989;48.962;9.182;2024-03-02T11:47:56;40.70;28.90
19680;DHT22;9989;48.962;9.182;2024-03-02T11:50:36;40.40;29.60
19680;DHT22;9989;48.962;9.182;2024-03-02T11:53:06;40.50;29.40
19680;DHT22;9989;48.962;9.182;2024-03-02T11:55:35;40.60;28.90
19680;DHT22;9989;48.962;9.182;2024-03-02T11:58:05;40.50;28.70
19680;DHT22;9989;48.962;9.182;2024-03-02T12:00:31;40.40;28.60
19680;DHT22;9989;48.962;9.182;2024-03-02T12:03:12;40.20;29.30
19680;DHT22;9989;48.962;9.182;2024-03-02T12:05:39;39.50;28.70
19680;DHT22;9989;48.962;9.182;2024-03-02T12:08:08;38.40;29.40
19680;DHT22;9989;48.962;9.182;2024-03-02T12:10:35;37.40;30.00
19680;DHT22;9989;48.962;9.182;2024-03-02T12:13:03;36.80;31.00
19680;DHT22;9989;48.962;9.182;2024-03-02T12:15:31;36.60;32.10
19680;DHT22;9989;48.962;9.182;2024-03-02T12:17:58;36.30;32.00
19680;DHT22;9989;48.962;9.182;2024-03-02T12:20:25;35.90;32.20
19680;DHT22;9989;48.962;9.182;2024-03-02T12:22:54;35.30;32.70
19680;DHT22;9989;48.962;9.182;2024-03-02T12:25:21;35.10;33.50
19680;DHT22;9989;48.962;9.182;2024-03-02T12:27:50;35.00;33.20
19680;DHT22;9989;48.962;9.182;2024-03-02T12:30:19;34.70;33.00
19680;DHT22;9989;48.962;9.182;2024-03-02T12:32:45;34.30;33.40
19680;DHT22;9989;48.962;9.182;2024-03-02T12:35:12;34.00;34.00
19680;DHT22;9989;48.962;9.182;2024-03-02T12:37:46;34.20;34.60
19680;DHT22;9989;48.962;9.182;2024-03-02T12:40:13;34.50;34.10
19680;DHT22;9989;48.962;9.182;2024-03-02T12:42:42;35.00;34.00
19680;DHT22;9989;48.962;9.182;2024-03-02T12:45:09;35.50;33.80
19680;DHT22;9989;48.962;9.182;2024-03-02T12:47:35;35.90;33.80
19680;DHT22;9989;48.962;9.182;2024-03-02T12:50:01;36.10;32.50
19680;DHT22;9989;48.962;9.182;2024-03-02T12:52:27;36.20;32.60
19680;DHT22;9989;48.962;9.182;2024-03-02T12:54:53;36.30;32.80
19680;DHT22;9989;48.962;9.182;2024-03-02T12:57:25;36.40;32.90
19680;DHT22;9989;48.962;9.182;2024-03-02T12:59:52;36.60;32.80
19680;DHT22;9989;48.962;9.182;2024-03-02T13:02:18;36.70;32.70
19680;DHT22;9989;48.962;9.182;2024-03-02T13:04:44;36.60;32.30
19680;DHT22;9989;48.962;9.182;2024-03-02T13:07:10;36.40;32.70
19680;DHT22;9989;48.962;9.182;2024-03-02T13:09:39;36.40;32.80
19680;DHT22;9989;48.962;9.182;2024-03-02T13:12:05;36.40;32.60
19680;DHT22;9989;48.962;9.182;2024-03-02T13:14:33;36.60;32.10
19680;DHT22;9989;48.962;9.182;2024-03-02T13:17:01;36.60;32.00
19680;DHT22;9989;48.962;9.182;2024-03-02T13:19:29;36.60;32.70
19680;DHT22;9989;48.962;9.182;2024-03-02T13:21:56;36.70;32.30
19680;DHT22;9989;48.962;9.182;2024-03-02T13:24:22;36.80;32.20
19680;DHT22;9989;48.962;9.182;2024-03-02T13:26:51;37.00;31.90
19680;DHT22;9989;48.962;9.182;2024-03-02T13:29:21;37.10;31.50
19680;DHT22;9989;48.962;9.182;2024-03-02T13:31:47;37.20;31.10
19680;DHT22;9989;48.962;9.182;2024-03-02T13:34:12;37.30;30.70
19680;DHT22;9989;48.962;9.182;2024-03-02T13:36:38;37.30;30.90
19680;DHT22;9989;48.962;9.182;2024-03-02T13:39:04;37.30;30.90
19680;DHT22;9989;48.962;9.182;2024-03-02T13:41:31;37.10;30.50
19680;DHT22;9989;48.962;9.182;2024-03-02T13:43:57;36.50;31.90
19680;DHT22;9989;48.962;9.182;2024-03-02T13:46:25;36.10;31.60
19680;DHT22;9989;48.962;9.182;2024-03-02T13:48:51;35.90;32.10
19680;DHT22;9989;48.962;9.182;2024-03-02T13:51:17;35.90;32.00
19680;DHT22;9989;48.962;9.182;2024-03-02T13:53:42;36.10;32.00
19680;DHT22;9989;48.962;9.182;2024-03-02T13:56:08;36.40;31.40
19680;DHT22;9989;48.962;9.182;2024-03-02T13:58:34;36.60;31.20
19680;DHT22;9989;48.962;9.182;2024-03-02T14:01:00;36.90;30.60
19680;DHT22;9989;48.962;9.182;2024-03-02T14:03:27;36.90;30.60
19680;DHT22;9989;48.962;9.182;2024-03-02T14:09:01;36.70;30.40
19680;DHT22;9989;48.962;9.182;2024-03-02T14:11:26;36.30;30.50
19680;DHT22;9989;48.962;9.182;2024-03-02T14:13:52;36.00;31.20
19680;DHT22;9989;48.962;9.182;2024-03-02T14:16:20;35.70;32.20
19680;DHT22;9989;48.962;9.182;2024-03-02T14:18:45;35.40;32.40
19680;DHT22;9989;48.962;9.182;2024-03-02T14:21:11;35.20;33.00
19680;DHT22;9989;48.962;9.182;2024-03-02T14:23:37;35.00;33.40
19680;DHT22;9989;48.962;9.182;2024-03-02T14:26:03;34.90;33.20
19680;DHT22;9989;48.962;9.182;2024-03-02T14:28:31;34.60;32.90
19680;DHT22;9989;48.962;9.182;2024-03-02T14:30:56;34.50;32.90
19680;DHT22;9989;48.962;9.182;2024-03-02T14:33:22;34.30;32.30
19680;DHT22;9989;48.962;9.182;2024-03-02T14:35:48;34.20;32.10
19680;DHT22;9989;48.962;9.182;2024-03-02T14:38:14;34.10;32.40
19680;DHT22;9989;48.962;9.182;2024-03-02T14:40:39;33.90;32.40
19680;DHT22;9989;48.962;9.182;2024-03-02T14:43:05;33.60;32.40
19680;DHT22;9989;48.962;9.182;2024-03-02T14:45:30;33.20;33.30
19680;DHT22;9989;48.962;9.182;2024-03-02T14:47:56;33.00;33.20
19680;DHT22;9989;48.962;9.182;2024-03-02T14:50:25;33.10;34.00
19680;DHT22;9989;48.962;9.182;2024-03-02T14:52:51;33.50;33.50
19680;DHT22;9989;48.962;9.182;2024-03-02T14:55:17;34.00;32.90
19680;DHT22;9989;48.962;9.182;2024-03-02T14:57:42;34.10;31.90
19680;DHT22;9989;48.962;9.182;2024-03-02T15:00:09;34.00;32.20
19680;DHT22;9989;48.962;9.182;2024-03-02T15:02:37;33.80;32.50
19680;DHT22;9989;48.962;9.182;2024-03-02T15:05:03;33.50;32.90
19680;DHT22;9989;48.962;9.182;2024-03-02T15:07:31;33.20;32.70
19680;DHT22;9989;48.962;9.182;2024-03-02T15:09:57;32.70;32.60
19680;DHT22;9989;48.962;9.182;2024-03-02T15:12:23;32.00;33.20
19680;DHT22;9989;48.962;9.182;2024-03-02T15:14:49;31.30;34.00
19680;DHT22;9989;48.962;9.182;2024-03-02T15:17:15;31.10;34.80
19680;DHT22;9989;48.962;9.182;2024-03-02T15:19:45;31.10;35.20
19680;DHT22;9989;48.962;9.182;2024-03-02T15:22:11;31.00;34.80
19680;DHT22;9989;48.962;9.182;2024-03-02T15:24:37;30.90;34.70
19680;DHT22;9989;48.962;9.182;2024-03-02T15:27:04;30.60;35.10
19680;DHT22;9989;48.962;9.182;2024-03-02T15:29:31;30.20;35.70
19680;DHT22;9989;48.962;9.182;2024-03-02T15:31:57;29.70;36.20
19680;DHT22;9989;48.962;9.182;2024-03-02T15:34:23;29.20;36.70
19680;DHT22;9989;48.962;9.182;2024-03-02T15:36:49;28.40;37.30
19680;DHT22;9989;48.962;9.182;2024-03-02T15:39:15;27.50;38.00
19680;DHT22;9989;48.962;9.182;2024-03-02T15:41:40;26.60;38.70
19680;DHT22;9989;48.962;9.182;2024-03-02T15:44:07;25.90;39.90
19680;DHT22;9989;48.962;9.182;2024-03-02T15:46:33;25.20;41.30
19680;DHT22;9989;48.962;9.182;2024-03-02T15:48:59;24.50;42.10
19680;DHT22;9989;48.962;9.182;2024-03-02T15:51:26;24.00;43.10
19680;DHT22;9989;48.962;9.182;2024-03-02T15:53:51;23.40;43.70
19680;DHT22;9989;48.962;9.182;2024-03-02T15:56:17;23.00;44.70
19680;DHT22;9989;48.962;9.182;2024-03-02T15:58:43;22.50;45.70
19680;DHT22;9989;48.962;9.182;2024-03-02T16:01:08;22.10;46.40